sensor_id;sensor_type;location;lat;lon;timestamp;temperature;humidity
26707;DHT22;14319;49.422;10.934;2023-05-07T00:00:14;14.10;79.90
26707;DHT22;14319;49.422;10.934;2023-05-07T00:02:16;14.10;79.90
26707;DHT22;14319;49.422;10.934;2023-05-07T00:04:17;14.10;80.10
26707;DHT22;14319;49.422;10.934;2023-05-07T00:06:17;14.00;80.30
26707;DHT22;14319;49.422;10.934;2023-05-07T00:08:18;14.00;80.50
26707;DHT22;14319;49.422;10.934;2023-05-07T00:10:19;14.00;80.50
26707;DHT22;14319;49.422;10.934;2023-05-07T00:12:20;14.00;80.50
26707;DHT22;14319;49.422;10.934;2023-05-07T00:14:20;14.00;80.60
26707;DHT22;14319;49.422;10.934;2023-05-07T00:16:21;14.10;80.80
26707;DHT22;14319;49.422;10.934;2023-05-07T00:18:22;14.00;80.80
26707;DHT22;14319;49.422;10.934;2023-05-07T00:20:22;13.90;80.50
26707;DHT22;14319;49.422;10.934;2023-05-07T00:22:23;13.70;81.40
26707;DHT22;14319;49.422;10.934;2023-05-07T00:24:24;13.80;81.70
26707;DHT22;14319;49.422;10.934;2023-05-07T00:26:25;13.80;81.90
26707;DHT22;14319;49.422;10.934;2023-05-07T00:28:25;13.80;82.00
26707;DHT22;14319;49.422;10.934;2023-05-07T00:30:26;13.90;81.60
26707;DHT22;14319;49.422;10.934;2023-05-07T00:32:27;13.50;83.40
26707;DHT22;14319;49.422;10.934;2023-05-07T00:34:27;13.40;84.30
26707;DHT22;14319;49.422;10.934;2023-05-07T00:36:28;13.50;84.10
26707;DHT22;14319;49.422;10.934;2023-05-07T00:38:29;13.50;83.90
26707;DHT22;14319;49.422;10.934;2023-05-07T00:40:30;13.40;85.00
26707;DHT22;14319;49.422;10.934;2023-05-07T00:42:31;13.40;85.00
26707;DHT22;14319;49.422;10.934;2023-05-07T00:44:32;13.50;84.80
26707;DHT22;14319;49.422;10.934;2023-05-07T00:46:33;13.60;84.10
26707;DHT22;14319;49.422;10.934;2023-05-07T00:48:34;13.60;83.70
26707;DHT22;14319;49.422;10.934;2023-05-07T00:50:35;13.70;83.80
26707;DHT22;14319;49.422;10.934;2023-05-07T00:52:37;13.80;83.40
26707;DHT22;14319;49.422;10.934;2023-05-07T00:54:38;13.90;83.10
26707;DHT22;14319;49.422;10.934;2023-05-07T00:56:40;13.90;82.70
26707;DHT22;14319;49.422;10.934;2023-05-07T00:58:41;13.90;82.70
26707;DHT22;14319;49.422;10.934;2023-05-07T01:00:45;13.90;82.70
26707;DHT22;14319;49.422;10.934;2023-05-07T01:02:45;14.00;82.60
26707;DHT22;14319;49.422;10.934;2023-05-07T01:04:46;13.90;82.80
26707;DHT22;14319;49.422;10.934;2023-05-07T01:06:50;13.90;82.80
26707;DHT22;14319;49.422;10.934;2023-05-07T01:08:52;13.80;83.40
26707;DHT22;14319;49.422;10.934;2023-05-07T01:10:55;13.90;83.20
26707;DHT22;14319;49.422;10.934;2023-05-07T01:12:57;13.90;83.30
26707;DHT22;14319;49.422;10.934;2023-05-07T01:14:59;13.90;83.10
26707;DHT22;14319;49.422;10.934;2023-05-07T01:16:59;13.90;83.30
26707;DHT22;14319;49.422;10.934;2023-05-07T01:19:01;13.90;83.20
26707;DHT22;14319;49.422;10.934;2023-05-07T01:21:02;13.90;82.90
26707;DHT22;14319;49.422;10.934;2023-05-07T01:23:04;13.90;83.30
26707;DHT22;14319;49.422;10.934;2023-05-07T01:25:06;14.00;83.70
26707;DHT22;14319;49.422;10.934;2023-05-07T01:27:15;14.00;82.60
26707;DHT22;14319;49.422;10.934;2023-05-07T01:29:18;14.00;82.10
26707;DHT22;14319;49.422;10.934;2023-05-07T01:31:20;14.00;82.30
26707;DHT22;14319;49.422;10.934;2023-05-07T01:33:21;14.00;82.30
26707;DHT22;14319;49.422;10.934;2023-05-07T01:35:26;14.10;81.90
26707;DHT22;14319;49.422;10.934;2023-05-07T01:37:29;14.00;82.10
26707;DHT22;14319;49.422;10.934;2023-05-07T01:39:31;14.10;81.80
26707;DHT22;14319;49.422;10.934;2023-05-07T01:41:32;14.10;82.10
26707;DHT22;14319;49.422;10.934;2023-05-07T01:43:33;14.10;81.90
26707;DHT22;14319;49.422;10.934;2023-05-07T01:45:34;14.10;81.60
26707;DHT22;14319;49.422;10.934;2023-05-07T01:47:36;14.10;81.90
26707;DHT22;14319;49.422;10.934;2023-05-07T01:49:37;14.10;81.90
26707;DHT22;14319;49.422;10.934;2023-05-07T01:51:38;14.00;82.00
26707;DHT22;14319;49.422;10.934;2023-05-07T01:53:39;14.10;81.50
26707;DHT22;14319;49.422;10.934;2023-05-07T01:55:41;14.10;81.50
26707;DHT22;14319;49.422;10.934;2023-05-07T01:57:42;14.10;81.60
26707;DHT22;14319;49.422;10.934;2023-05-07T01:59:43;14.10;81.70
26707;DHT22;14319;49.422;10.934;2023-05-07T02:01:43;14.00;81.60
26707;DHT22;14319;49.422;10.934;2023-05-07T02:03:45;13.90;81.60
26707;DHT22;14319;49.422;10.934;2023-05-07T02:05:53;13.90;82.00
26707;DHT22;14319;49.422;10.934;2023-05-07T02:08:06;13.90;82.20
26707;DHT22;14319;49.422;10.934;2023-05-07T02:10:10;13.90;82.40
26707;DHT22;14319;49.422;10.934;2023-05-07T02:12:10;13.90;82.00
26707;DHT22;14319;49.422;10.934;2023-05-07T02:14:11;13.90;82.00
26707;DHT22;14319;49.422;10.934;2023-05-07T02:16:11;13.80;82.10
26707;DHT22;14319;49.422;10.934;2023-05-07T02:18:16;13.80;82.40
26707;DHT22;14319;49.422;10.934;2023-05-07T02:20:16;13.70;82.30
26707;DHT22;14319;49.422;10.934;2023-05-07T02:22:17;13.80;81.90
26707;DHT22;14319;49.422;10.934;2023-05-07T02:24:18;13.70;82.60
26707;DHT22;14319;49.422;10.934;2023-05-07T02:26:19;13.70;82.20
26707;DHT22;14319;49.422;10.934;2023-05-07T02:28:20;13.70;82.40
26707;DHT22;14319;49.422;10.934;2023-05-07T02:30:25;13.70;82.10
26707;DHT22;14319;49.422;10.934;2023-05-07T02:32:28;13.60;82.80
26707;DHT22;14319;49.422;10.934;2023-05-07T02:34:28;13.60;82.50
26707;DHT22;14319;49.422;10.934;2023-05-07T02:36:29;13.60;82.80
26707;DHT22;14319;49.422;10.934;2023-05-07T02:38:38;13.60;82.10
26707;DHT22;14319;49.422;10.934;2023-05-07T02:40:39;13.70;81.60
26707;DHT22;14319;49.422;10.934;2023-05-07T02:42:40;13.50;81.80
26707;DHT22;14319;49.422;10.934;2023-05-07T02:44:41;13.40;82.80
26707;DHT22;14319;49.422;10.934;2023-05-07T02:46:41;13.40;82.90
26707;DHT22;14319;49.422;10.934;2023-05-07T02:48:45;13.30;83.40
26707;DHT22;14319;49.422;10.934;2023-05-07T02:50:45;13.40;82.90
26707;DHT22;14319;49.422;10.934;2023-05-07T02:52:48;13.40;83.00
26707;DHT22;14319;49.422;10.934;2023-05-07T02:54:48;13.40;82.90
26707;DHT22;14319;49.422;10.934;2023-05-07T02:56:49;13.40;82.70
26707;DHT22;14319;49.422;10.934;2023-05-07T02:58:49;13.40;82.80
26707;DHT22;14319;49.422;10.934;2023-05-07T03:00:52;13.30;83.20
26707;DHT22;14319;49.422;10.934;2023-05-07T03:03:04;13.20;83.50
26707;DHT22;14319;49.422;10.934;2023-05-07T03:05:05;13.20;83.60
26707;DHT22;14319;49.422;10.934;2023-05-07T03:07:06;13.20;83.10
26707;DHT22;14319;49.422;10.934;2023-05-07T03:09:07;13.20;83.00
26707;DHT22;14319;49.422;10.934;2023-05-07T03:11:07;13.20;83.20
26707;DHT22;14319;49.422;10.934;2023-05-07T03:13:08;13.20;83.20
26707;DHT22;14319;49.422;10.934;2023-05-07T03:15:09;13.10;83.60
26707;DHT22;14319;49.422;10.934;2023-05-07T03:17:11;13.20;83.30
26707;DHT22;14319;49.422;10.934;2023-05-07T03:19:12;13.10;84.00
26707;DHT22;14319;49.422;10.934;2023-05-07T03:21:13;13.10;83.60
26707;DHT22;14319;49.422;10.934;2023-05-07T03:23:13;13.20;83.40
26707;DHT22;14319;49.422;10.934;2023-05-07T03:25:14;13.20;83.40
26707;DHT22;14319;49.422;10.934;2023-05-07T03:27:15;13.20;83.30
26707;DHT22;14319;49.422;10.934;2023-05-07T03:29:16;13.20;83.00
26707;DHT22;14319;49.422;10.934;2023-05-07T03:31:17;13.20;83.20
26707;DHT22;14319;49.422;10.934;2023-05-07T03:33:18;13.10;83.50
26707;DHT22;14319;49.422;10.934;2023-05-07T03:35:18;12.90;83.90
26707;DHT22;14319;49.422;10.934;2023-05-07T03:37:20;13.00;84.70
26707;DHT22;14319;49.422;10.934;2023-05-07T03:39:22;12.90;84.40
26707;DHT22;14319;49.422;10.934;2023-05-07T03:41:23;13.00;84.20
26707;DHT22;14319;49.422;10.934;2023-05-07T03:43:24;12.90;84.40
26707;DHT22;14319;49.422;10.934;2023-05-07T03:45:32;12.80;84.60
26707;DHT22;14319;49.422;10.934;2023-05-07T03:47:52;12.80;84.50
26707;DHT22;14319;49.422;10.934;2023-05-07T03:49:55;12.80;84.70
26707;DHT22;14319;49.422;10.934;2023-05-07T03:51:58;12.80;84.50
26707;DHT22;14319;49.422;10.934;2023-05-07T03:54:01;12.90;84.80
26707;DHT22;14319;49.422;10.934;2023-05-07T03:56:04;12.90;84.40
26707;DHT22;14319;49.422;10.934;2023-05-07T03:58:09;12.80;84.30
26707;DHT22;14319;49.422;10.934;2023-05-07T04:00:10;12.90;84.60
26707;DHT22;14319;49.422;10.934;2023-05-07T04:02:21;12.90;84.30
26707;DHT22;14319;49.422;10.934;2023-05-07T04:04:22;12.90;84.70
26707;DHT22;14319;49.422;10.934;2023-05-07T04:06:22;13.00;84.50
26707;DHT22;14319;49.422;10.934;2023-05-07T04:08:24;13.00;84.80
26707;DHT22;14319;49.422;10.934;2023-05-07T04:10:29;13.10;84.20
26707;DHT22;14319;49.422;10.934;2023-05-07T04:12:31;13.10;83.80
26707;DHT22;14319;49.422;10.934;2023-05-07T04:14:32;13.00;83.80
26707;DHT22;14319;49.422;10.934;2023-05-07T04:16:35;13.10;84.30
26707;DHT22;14319;49.422;10.934;2023-05-07T04:18:36;13.00;84.30
26707;DHT22;14319;49.422;10.934;2023-05-07T04:20:37;12.70;84.80
26707;DHT22;14319;49.422;10.934;2023-05-07T04:22:39;12.70;85.60
26707;DHT22;14319;49.422;10.934;2023-05-07T04:24:40;12.80;85.30
26707;DHT22;14319;49.422;10.934;2023-05-07T04:26:41;12.90;85.10
26707;DHT22;14319;49.422;10.934;2023-05-07T04:28:42;12.90;85.20
26707;DHT22;14319;49.422;10.934;2023-05-07T04:30:43;12.90;85.10
26707;DHT22;14319;49.422;10.934;2023-05-07T04:32:45;13.00;84.90
26707;DHT22;14319;49.422;10.934;2023-05-07T04:34:45;13.10;84.80
26707;DHT22;14319;49.422;10.934;2023-05-07T04:36:46;13.00;84.40
26707;DHT22;14319;49.422;10.934;2023-05-07T04:38:48;12.60;86.00
26707;DHT22;14319;49.422;10.934;2023-05-07T04:40:50;12.40;86.90
26707;DHT22;14319;49.422;10.934;2023-05-07T04:42:55;12.20;87.30
26707;DHT22;14319;49.422;10.934;2023-05-07T04:44:56;12.00;88.40
26707;DHT22;14319;49.422;10.934;2023-05-07T04:46:58;12.30;88.10
26707;DHT22;14319;49.422;10.934;2023-05-07T04:48:59;12.50;88.10
26707;DHT22;14319;49.422;10.934;2023-05-07T04:51:00;12.50;87.70
26707;DHT22;14319;49.422;10.934;2023-05-07T04:53:00;12.70;87.30
26707;DHT22;14319;49.422;10.934;2023-05-07T04:55:02;12.80;86.60
26707;DHT22;14319;49.422;10.934;2023-05-07T04:57:08;12.90;86.30
26707;DHT22;14319;49.422;10.934;2023-05-07T04:59:09;13.10;86.30
26707;DHT22;14319;49.422;10.934;2023-05-07T05:01:10;13.10;85.10
26707;DHT22;14319;49.422;10.934;2023-05-07T05:03:11;13.10;85.50
26707;DHT22;14319;49.422;10.934;2023-05-07T05:05:13;13.10;85.80
26707;DHT22;14319;49.422;10.934;2023-05-07T05:07:14;13.20;85.50
26707;DHT22;14319;49.422;10.934;2023-05-07T05:09:15;13.30;85.50
26707;DHT22;14319;49.422;10.934;2023-05-07T05:11:16;13.40;85.10
26707;DHT22;14319;49.422;10.934;2023-05-07T05:13:17;13.60;84.50
26707;DHT22;14319;49.422;10.934;2023-05-07T05:15:17;13.60;83.40
26707;DHT22;14319;49.422;10.934;2023-05-07T05:17:18;13.70;83.50
26707;DHT22;14319;49.422;10.934;2023-05-07T05:19:19;13.80;83.10
26707;DHT22;14319;49.422;10.934;2023-05-07T05:21:20;13.80;82.90
26707;DHT22;14319;49.422;10.934;2023-05-07T05:23:23;13.90;82.70
26707;DHT22;14319;49.422;10.934;2023-05-07T05:25:24;13.90;82.70
26707;DHT22;14319;49.422;10.934;2023-05-07T05:27:25;13.90;82.10
26707;DHT22;14319;49.422;10.934;2023-05-07T05:29:26;13.90;82.70
26707;DHT22;14319;49.422;10.934;2023-05-07T05:31:26;13.90;83.20
26707;DHT22;14319;49.422;10.934;2023-05-07T05:33:27;14.00;83.10
26707;DHT22;14319;49.422;10.934;2023-05-07T05:35:29;13.90;83.10
26707;DHT22;14319;49.422;10.934;2023-05-07T05:37:31;14.00;82.60
26707;DHT22;14319;49.422;10.934;2023-05-07T05:39:33;13.90;82.30
26707;DHT22;14319;49.422;10.934;2023-05-07T05:41:34;14.00;82.20
26707;DHT22;14319;49.422;10.934;2023-05-07T05:43:35;14.10;81.80
26707;DHT22;14319;49.422;10.934;2023-05-07T05:45:36;14.10;82.30
26707;DHT22;14319;49.422;10.934;2023-05-07T05:47:37;14.20;82.50
26707;DHT22;14319;49.422;10.934;2023-05-07T05:49:38;14.20;82.30
26707;DHT22;14319;49.422;10.934;2023-05-07T05:51:40;14.30;81.50
26707;DHT22;14319;49.422;10.934;2023-05-07T05:53:40;14.30;81.40
26707;DHT22;14319;49.422;10.934;2023-05-07T05:55:42;14.30;80.70
26707;DHT22;14319;49.422;10.934;2023-05-07T05:57:42;14.40;81.40
26707;DHT22;14319;49.422;10.934;2023-05-07T05:59:44;14.40;81.10
26707;DHT22;14319;49.422;10.934;2023-05-07T06:01:45;14.40;80.90
26707;DHT22;14319;49.422;10.934;2023-05-07T06:03:46;14.40;80.90
26707;DHT22;14319;49.422;10.934;2023-05-07T06:05:49;14.50;81.50
26707;DHT22;14319;49.422;10.934;2023-05-07T06:07:50;14.50;80.80
26707;DHT22;14319;49.422;10.934;2023-05-07T06:09:51;14.50;80.10
26707;DHT22;14319;49.422;10.934;2023-05-07T06:11:51;14.60;79.80
26707;DHT22;14319;49.422;10.934;2023-05-07T06:13:52;14.60;79.20
26707;DHT22;14319;49.422;10.934;2023-05-07T06:15:53;14.60;80.30
26707;DHT22;14319;49.422;10.934;2023-05-07T06:17:54;14.70;80.00
26707;DHT22;14319;49.422;10.934;2023-05-07T06:19:56;14.80;79.90
26707;DHT22;14319;49.422;10.934;2023-05-07T06:21:57;14.80;79.50
26707;DHT22;14319;49.422;10.934;2023-05-07T06:23:58;14.80;79.00
26707;DHT22;14319;49.422;10.934;2023-05-07T06:25:58;14.90;79.00
26707;DHT22;14319;49.422;10.934;2023-05-07T06:28:05;15.00;78.90
26707;DHT22;14319;49.422;10.934;2023-05-07T06:30:09;15.10;79.70
26707;DHT22;14319;49.422;10.934;2023-05-07T06:32:10;15.10;80.10
26707;DHT22;14319;49.422;10.934;2023-05-07T06:34:13;15.20;78.00
26707;DHT22;14319;49.422;10.934;2023-05-07T06:36:17;15.30;77.60
26707;DHT22;14319;49.422;10.934;2023-05-07T06:38:18;15.30;77.80
26707;DHT22;14319;49.422;10.934;2023-05-07T06:40:20;15.30;78.40
26707;DHT22;14319;49.422;10.934;2023-05-07T06:42:21;15.40;77.50
26707;DHT22;14319;49.422;10.934;2023-05-07T06:44:23;15.50;76.60
26707;DHT22;14319;49.422;10.934;2023-05-07T06:46:33;15.50;76.20
26707;DHT22;14319;49.422;10.934;2023-05-07T06:48:34;15.60;77.80
26707;DHT22;14319;49.422;10.934;2023-05-07T06:50:39;15.60;76.10
26707;DHT22;14319;49.422;10.934;2023-05-07T06:52:40;15.60;76.10
26707;DHT22;14319;49.422;10.934;2023-05-07T06:54:40;15.70;76.50
26707;DHT22;14319;49.422;10.934;2023-05-07T06:56:42;15.70;76.20
26707;DHT22;14319;49.422;10.934;2023-05-07T06:58:43;15.70;76.40
26707;DHT22;14319;49.422;10.934;2023-05-07T07:00:45;15.70;76.00
26707;DHT22;14319;49.422;10.934;2023-05-07T07:02:47;15.70;76.00
26707;DHT22;14319;49.422;10.934;2023-05-07T07:04:49;15.70;76.30
26707;DHT22;14319;49.422;10.934;2023-05-07T07:06:52;15.70;75.90
26707;DHT22;14319;49.422;10.934;2023-05-07T07:08:53;15.90;75.60
26707;DHT22;14319;49.422;10.934;2023-05-07T07:10:54;15.80;75.80
26707;DHT22;14319;49.422;10.934;2023-05-07T07:12:54;15.90;76.00
26707;DHT22;14319;49.422;10.934;2023-05-07T07:14:56;16.00;75.70
26707;DHT22;14319;49.422;10.934;2023-05-07T07:16:57;16.00;76.40
26707;DHT22;14319;49.422;10.934;2023-05-07T07:18:58;16.00;75.60
26707;DHT22;14319;49.422;10.934;2023-05-07T07:20:59;16.10;74.70
26707;DHT22;14319;49.422;10.934;2023-05-07T07:23:00;16.20;74.50
26707;DHT22;14319;49.422;10.934;2023-05-07T07:25:01;16.20;75.10
26707;DHT22;14319;49.422;10.934;2023-05-07T07:27:01;16.20;74.30
26707;DHT22;14319;49.422;10.934;2023-05-07T07:29:02;16.30;75.90
26707;DHT22;14319;49.422;10.934;2023-05-07T07:31:03;16.30;75.10
26707;DHT22;14319;49.422;10.934;2023-05-07T07:33:05;16.40;74.00
26707;DHT22;14319;49.422;10.934;2023-05-07T07:35:09;16.30;73.70
26707;DHT22;14319;49.422;10.934;2023-05-07T07:37:11;16.40;74.00
26707;DHT22;14319;49.422;10.934;2023-05-07T07:39:12;16.50;74.30
26707;DHT22;14319;49.422;10.934;2023-05-07T07:41:13;16.50;74.20
26707;DHT22;14319;49.422;10.934;2023-05-07T07:43:14;16.50;73.40
26707;DHT22;14319;49.422;10.934;2023-05-07T07:45:15;16.50;73.80
26707;DHT22;14319;49.422;10.934;2023-05-07T07:47:19;16.70;73.60
26707;DHT22;14319;49.422;10.934;2023-05-07T07:49:22;16.70;73.90
26707;DHT22;14319;49.422;10.934;2023-05-07T07:51:22;16.80;75.00
26707;DHT22;14319;49.422;10.934;2023-05-07T07:53:23;16.90;74.60
26707;DHT22;14319;49.422;10.934;2023-05-07T07:55:24;16.90;72.60
26707;DHT22;14319;49.422;10.934;2023-05-07T07:57:27;16.90;73.30
26707;DHT22;14319;49.422;10.934;2023-05-07T07:59:28;17.00;72.50
26707;DHT22;14319;49.422;10.934;2023-05-07T08:01:30;17.00;72.60
26707;DHT22;14319;49.422;10.934;2023-05-07T08:03:31;17.00;72.60
26707;DHT22;14319;49.422;10.934;2023-05-07T08:05:33;17.10;72.90
26707;DHT22;14319;49.422;10.934;2023-05-07T08:07:34;17.20;73.90
26707;DHT22;14319;49.422;10.934;2023-05-07T08:09:37;17.20;73.00
26707;DHT22;14319;49.422;10.934;2023-05-07T08:11:39;17.20;73.40
26707;DHT22;14319;49.422;10.934;2023-05-07T08:13:40;17.10;72.30
26707;DHT22;14319;49.422;10.934;2023-05-07T08:15:40;16.90;73.80
26707;DHT22;14319;49.422;10.934;2023-05-07T08:17:42;17.00;72.90
26707;DHT22;14319;49.422;10.934;2023-05-07T08:19:42;17.10;74.30
26707;DHT22;14319;49.422;10.934;2023-05-07T08:21:46;17.10;72.90
26707;DHT22;14319;49.422;10.934;2023-05-07T08:23:48;17.10;72.90
26707;DHT22;14319;49.422;10.934;2023-05-07T08:25:49;17.20;73.80
26707;DHT22;14319;49.422;10.934;2023-05-07T08:27:51;17.20;72.50
26707;DHT22;14319;49.422;10.934;2023-05-07T08:29:52;17.20;72.90
26707;DHT22;14319;49.422;10.934;2023-05-07T08:31:54;17.00;74.40
26707;DHT22;14319;49.422;10.934;2023-05-07T08:33:55;17.10;74.20
26707;DHT22;14319;49.422;10.934;2023-05-07T08:35:55;16.80;72.40
26707;DHT22;14319;49.422;10.934;2023-05-07T08:37:57;16.70;75.40
26707;DHT22;14319;49.422;10.934;2023-05-07T08:39:58;16.90;75.30
26707;DHT22;14319;49.422;10.934;2023-05-07T08:42:04;17.20;73.10
26707;DHT22;14319;49.422;10.934;2023-05-07T08:44:11;17.40;72.30
26707;DHT22;14319;49.422;10.934;2023-05-07T08:46:19;17.40;72.40
26707;DHT22;14319;49.422;10.934;2023-05-07T08:48:22;17.40;73.60
26707;DHT22;14319;49.422;10.934;2023-05-07T08:50:30;17.30;72.10
26707;DHT22;14319;49.422;10.934;2023-05-07T08:52:32;17.10;73.40
26707;DHT22;14319;49.422;10.934;2023-05-07T08:54:33;17.20;74.30
26707;DHT22;14319;49.422;10.934;2023-05-07T08:56:36;17.50;72.20
26707;DHT22;14319;49.422;10.934;2023-05-07T08:58:36;17.40;71.50
26707;DHT22;14319;49.422;10.934;2023-05-07T09:00:39;17.40;75.70
26707;DHT22;14319;49.422;10.934;2023-05-07T09:02:40;17.60;72.20
26707;DHT22;14319;49.422;10.934;2023-05-07T09:04:42;17.60;72.40
26707;DHT22;14319;49.422;10.934;2023-05-07T09:06:43;17.80;73.10
26707;DHT22;14319;49.422;10.934;2023-05-07T09:08:51;17.90;72.50
26707;DHT22;14319;49.422;10.934;2023-05-07T09:10:53;17.80;73.60
26707;DHT22;14319;49.422;10.934;2023-05-07T09:12:53;17.80;72.70
26707;DHT22;14319;49.422;10.934;2023-05-07T09:14:54;17.80;73.20
26707;DHT22;14319;49.422;10.934;2023-05-07T09:16:56;17.80;72.10
26707;DHT22;14319;49.422;10.934;2023-05-07T09:18:58;17.90;72.50
26707;DHT22;14319;49.422;10.934;2023-05-07T09:20:59;17.90;73.30
26707;DHT22;14319;49.422;10.934;2023-05-07T09:23:00;17.90;72.90
26707;DHT22;14319;49.422;10.934;2023-05-07T09:25:02;17.90;73.30
26707;DHT22;14319;49.422;10.934;2023-05-07T09:27:05;17.90;73.40
26707;DHT22;14319;49.422;10.934;2023-05-07T09:29:07;17.90;71.90
26707;DHT22;14319;49.422;10.934;2023-05-07T09:31:11;17.90;72.90
26707;DHT22;14319;49.422;10.934;2023-05-07T09:33:12;17.90;71.80
26707;DHT22;14319;49.422;10.934;2023-05-07T09:35:16;17.80;72.40
26707;DHT22;14319;49.422;10.934;2023-05-07T09:37:17;18.00;72.40
26707;DHT22;14319;49.422;10.934;2023-05-07T09:39:18;18.00;72.20
26707;DHT22;14319;49.422;10.934;2023-05-07T09:41:19;18.10;68.40
26707;DHT22;14319;49.422;10.934;2023-05-07T09:43:44;17.90;70.20
26707;DHT22;14319;49.422;10.934;2023-05-07T09:45:47;17.90;73.90
26707;DHT22;14319;49.422;10.934;2023-05-07T09:47:56;18.20;71.20
26707;DHT22;14319;49.422;10.934;2023-05-07T09:49:59;18.10;71.60
26707;DHT22;14319;49.422;10.934;2023-05-07T09:52:05;18.20;71.90
26707;DHT22;14319;49.422;10.934;2023-05-07T09:54:10;18.30;72.00
26707;DHT22;14319;49.422;10.934;2023-05-07T09:56:14;18.30;71.20
26707;DHT22;14319;49.422;10.934;2023-05-07T09:58:16;18.40;69.90
26707;DHT22;14319;49.422;10.934;2023-05-07T10:00:20;18.30;69.50
26707;DHT22;14319;49.422;10.934;2023-05-07T10:02:23;18.30;71.00
26707;DHT22;14319;49.422;10.934;2023-05-07T10:04:27;18.50;68.20
26707;DHT22;14319;49.422;10.934;2023-05-07T10:06:28;18.40;68.40
26707;DHT22;14319;49.422;10.934;2023-05-07T10:08:31;18.40;68.70
26707;DHT22;14319;49.422;10.934;2023-05-07T10:10:33;18.50;68.10
26707;DHT22;14319;49.422;10.934;2023-05-07T10:12:35;18.50;68.50
26707;DHT22;14319;49.422;10.934;2023-05-07T10:14:41;18.60;68.10
26707;DHT22;14319;49.422;10.934;2023-05-07T10:16:43;18.80;67.20
26707;DHT22;14319;49.422;10.934;2023-05-07T10:18:48;18.90;65.20
26707;DHT22;14319;49.422;10.934;2023-05-07T10:20:54;18.90;65.90
26707;DHT22;14319;49.422;10.934;2023-05-07T10:22:59;18.90;67.40
26707;DHT22;14319;49.422;10.934;2023-05-07T10:25:15;19.00;66.00
26707;DHT22;14319;49.422;10.934;2023-05-07T10:27:17;18.90;66.20
26707;DHT22;14319;49.422;10.934;2023-05-07T10:34:00;19.30;67.20
26707;DHT22;14319;49.422;10.934;2023-05-07T10:36:03;19.40;67.60
26707;DHT22;14319;49.422;10.934;2023-05-07T10:38:06;19.60;65.10
26707;DHT22;14319;49.422;10.934;2023-05-07T10:40:11;19.70;65.00
26707;DHT22;14319;49.422;10.934;2023-05-07T10:42:13;19.90;62.50
26707;DHT22;14319;49.422;10.934;2023-05-07T10:44:29;19.80;64.20
26707;DHT22;14319;49.422;10.934;2023-05-07T10:46:33;19.80;65.00
26707;DHT22;14319;49.422;10.934;2023-05-07T10:51:31;19.80;63.70
26707;DHT22;14319;49.422;10.934;2023-05-07T10:53:40;19.80;64.60
26707;DHT22;14319;49.422;10.934;2023-05-07T10:55:48;19.90;62.90
26707;DHT22;14319;49.422;10.934;2023-05-07T10:57:54;20.00;63.30
26707;DHT22;14319;49.422;10.934;2023-05-07T10:59:59;20.10;62.20
26707;DHT22;14319;49.422;10.934;2023-05-07T11:02:05;20.10;62.80
26707;DHT22;14319;49.422;10.934;2023-05-07T11:04:20;20.20;62.80
26707;DHT22;14319;49.422;10.934;2023-05-07T11:06:41;20.40;64.10
26707;DHT22;14319;49.422;10.934;2023-05-07T11:08:56;20.50;62.60
26707;DHT22;14319;49.422;10.934;2023-05-07T11:11:02;20.50;64.10
26707;DHT22;14319;49.422;10.934;2023-05-07T11:13:18;20.60;62.40
26707;DHT22;14319;49.422;10.934;2023-05-07T11:15:41;20.50;60.90
26707;DHT22;14319;49.422;10.934;2023-05-07T11:17:54;20.50;61.20
26707;DHT22;14319;49.422;10.934;2023-05-07T11:19:56;20.50;62.30
26707;DHT22;14319;49.422;10.934;2023-05-07T11:22:05;20.50;63.00
26707;DHT22;14319;49.422;10.934;2023-05-07T11:24:42;20.60;61.20
26707;DHT22;14319;49.422;10.934;2023-05-07T11:26:50;20.70;60.50
26707;DHT22;14319;49.422;10.934;2023-05-07T11:28:53;20.70;61.30
26707;DHT22;14319;49.422;10.934;2023-05-07T11:30:55;20.80;62.80
26707;DHT22;14319;49.422;10.934;2023-05-07T11:32:56;20.90;61.20
26707;DHT22;14319;49.422;10.934;2023-05-07T11:34:58;21.00;60.80
26707;DHT22;14319;49.422;10.934;2023-05-07T11:37:00;21.20;59.60
26707;DHT22;14319;49.422;10.934;2023-05-07T11:39:30;21.30;59.40
26707;DHT22;14319;49.422;10.934;2023-05-07T11:41:36;21.40;59.60
26707;DHT22;14319;49.422;10.934;2023-05-07T11:43:37;21.50;58.40
26707;DHT22;14319;49.422;10.934;2023-05-07T11:45:40;21.50;58.20
26707;DHT22;14319;49.422;10.934;2023-05-07T11:47:41;21.70;57.50
26707;DHT22;14319;49.422;10.934;2023-05-07T11:49:47;21.80;54.70
26707;DHT22;14319;49.422;10.934;2023-05-07T11:51:48;21.80;54.70
26707;DHT22;14319;49.422;10.934;2023-05-07T11:53:50;21.80;54.50
26707;DHT22;14319;49.422;10.934;2023-05-07T11:55:55;21.80;55.10
26707;DHT22;14319;49.422;10.934;2023-05-07T11:57:55;21.80;54.80
26707;DHT22;14319;49.422;10.934;2023-05-07T11:59:57;21.80;56.20
26707;DHT22;14319;49.422;10.934;2023-05-07T12:01:58;21.80;57.30
26707;DHT22;14319;49.422;10.934;2023-05-07T12:04:03;21.70;55.40
26707;DHT22;14319;49.422;10.934;2023-05-07T12:06:08;21.80;57.10
26707;DHT22;14319;49.422;10.934;2023-05-07T12:08:14;21.90;58.00
26707;DHT22;14319;49.422;10.934;2023-05-07T12:10:15;21.90;58.20
26707;DHT22;14319;49.422;10.934;2023-05-07T12:12:15;21.90;58.40
26707;DHT22;14319;49.422;10.934;2023-05-07T12:14:17;21.90;57.60
26707;DHT22;14319;49.422;10.934;2023-05-07T12:16:19;21.90;56.30
26707;DHT22;14319;49.422;10.934;2023-05-07T12:18:20;21.90;56.20
26707;DHT22;14319;49.422;10.934;2023-05-07T12:20:21;21.90;56.40
26707;DHT22;14319;49.422;10.934;2023-05-07T12:22:22;21.90;55.50
26707;DHT22;14319;49.422;10.934;2023-05-07T12:24:22;21.80;55.70
26707;DHT22;14319;49.422;10.934;2023-05-07T12:26:23;21.80;55.10
26707;DHT22;14319;49.422;10.934;2023-05-07T12:28:25;21.90;57.00
26707;DHT22;14319;49.422;10.934;2023-05-07T12:30:26;21.90;57.70
26707;DHT22;14319;49.422;10.934;2023-05-07T12:32:26;22.00;56.30
26707;DHT22;14319;49.422;10.934;2023-05-07T12:34:28;22.10;55.60
26707;DHT22;14319;49.422;10.934;2023-05-07T12:36:39;22.10;56.80
26707;DHT22;14319;49.422;10.934;2023-05-07T12:38:40;22.10;56.30
26707;DHT22;14319;49.422;10.934;2023-05-07T12:42:43;22.20;54.60
26707;DHT22;14319;49.422;10.934;2023-05-07T12:44:46;22.20;55.30
26707;DHT22;14319;49.422;10.934;2023-05-07T12:46:46;22.20;55.60
26707;DHT22;14319;49.422;10.934;2023-05-07T12:48:48;22.30;57.30
26707;DHT22;14319;49.422;10.934;2023-05-07T12:50:53;22.30;55.10